Time;durP1;ratioP1;P1;durP2;ratioP2;P2;SDS_P1;SDS_P2;PMS_P1;PMS_P2;Temp;Humidity;BMP_temperature;BMP_pressure;BME280_temperature;BME280_humidity;BME280_pressure;Samples;Min_cycle;Max_cycle;Signal;HPM_P1;HPM_P2
2024/04/17 00:02:19;;;;;;;5.88;1.42;;;;;;;7.78;74.84;101403.63;5478483;26;20010;-55
2024/04/17 00:04:46;;;;;;;2.13;1.40;;;;;;;7.77;75.15;101409.47;5444127;26;20011;-55
2024/04/17 00:07:14;;;;;;;6.88;2.63;;;;;;;7.70;75.25;101407.16;5443580;26;20002;-56
2024/04/17 00:09:41;;;;;;;8.35;1.85;;;;;;;7.66;74.98;101410.81;5412700;26;20011;-57
2024/04/17 00:12:08;;;;;;;4.15;1.35;;;;;;;7.61;75.01;101414.50;5443847;26;20027;-53
2024/04/17 00:14:36;;;;;;;8.73;1.33;;;;;;;7.54;75.26;101416.06;5442591;26;20041;-53
2024/04/17 00:17:03;;;;;;;3.20;1.85;;;;;;;7.51;75.65;101406.47;5412328;26;20007;-56
2024/04/17 00:19:31;;;;;;;3.88;1.30;;;;;;;7.49;75.60;101408.72;5442449;26;20357;-53
2024/04/17 00:21:58;;;;;;;11.93;2.90;;;;;;;7.43;75.58;101407.19;5430703;26;20003;-54
2024/04/17 00:24:26;;;;;;;5.32;1.52;;;;;;;7.38;75.84;101412.81;5443341;26;20014;-58
2024/04/17 00:26:53;;;;;;;11.68;1.92;;;;;;;7.32;75.82;101412.09;5441961;26;20075;-57
2024/04/17 00:29:21;;;;;;;7.60;2.85;;;;;;;7.29;76.05;101420.16;5444325;26;20014;-55
2024/04/17 00:31:48;;;;;;;6.30;1.80;;;;;;;7.24;76.11;101409.25;5443834;26;20018;-53
2024/04/17 00:34:16;;;;;;;3.05;1.38;;;;;;;7.18;76.11;101410.47;5478959;26;20078;-58
2024/04/17 00:36:43;;;;;;;9.27;1.75;;;;;;;7.18;76.09;101414.03;5484264;26;20014;-57
2024/04/17 00:39:11;;;;;;;5.07;1.42;;;;;;;7.19;75.96;101412.09;5483186;26;20029;-53
2024/04/17 00:41:38;;;;;;;5.85;2.10;;;;;;;7.18;76.21;101403.03;5452269;26;20002;-55
2024/04/17 00:44:05;;;;;;;8.07;1.90;;;;;;;7.17;76.19;101406.91;5462491;26;20015;-56
2024/04/17 00:46:36;;;;;;;4.97;1.52;;;;;;;7.14;76.33;101388.25;5447267;26;20003;-55
2024/04/17 00:49:05;;;;;;;9.82;1.80;;;;;;;7.10;76.34;101392.72;5415927;26;20492;-53
2024/04/17 00:51:34;;;;;;;15.27;2.95;;;;;;;7.07;76.66;101390.59;5416035;26;20818;-56
2024/04/17 00:54:03;;;;;;;7.57;1.33;;;;;;;7.04;76.83;101382.94;5448022;26;20011;-56
2024/04/17 00:56:31;;;;;;;5.80;1.52;;;;;;;6.98;77.04;101377.84;5446522;26;20050;-53
2024/04/17 00:59:00;;;;;;;9.27;1.45;;;;;;;6.95;77.10;101379.28;5447518;26;20018;-54
2024/04/17 01:01:28;;;;;;;8.90;2.53;;;;;;;6.94;77.01;101382.31;5449444;26;20080;-54
2024/04/17 01:03:55;;;;;;;6.22;1.58;;;;;;;6.93;76.95;101387.03;5415018;26;20003;-56
2024/04/17 01:06:23;;;;;;;6.60;1.42;;;;;;;6.91;77.14;101385.72;5446448;26;20003;-56
2024/04/17 01:08:51;;;;;;;8.27;1.83;;;;;;;6.87;77.11;101392.94;5415146;26;19999;-52
2024/04/17 01:11:19;;;;;;;7.10;1.80;;;;;;;6.85;77.45;101389.66;5439532;26;20473;-57
2024/04/17 01:13:46;;;;;;;8.50;2.10;;;;;;;6.80;77.47;101387.84;5446152;26;19998;-55
2024/04/17 01:16:14;;;;;;;9.80;2.22;;;;;;;6.81;77.18;101385.88;5414898;26;19999;-58
2024/04/17 01:18:44;;;;;;;10.95;1.65;;;;;;;6.74;77.72;101387.13;5445737;26;20031;-56
2024/04/17 01:21:11;;;;;;;11.35;1.92;;;;;;;6.72;77.23;101381.06;5446207;26;20022;-56
2024/04/17 01:23:39;;;;;;;4.75;1.63;;;;;;;6.68;77.60;101374.56;5446133;26;20015;-56
2024/04/17 01:26:06;;;;;;;7.55;1.83;;;;;;;6.68;77.66;101382.81;5446469;26;20015;-53
2024/04/17 01:28:33;;;;;;;9.77;2.92;;;;;;;6.69;77.61;101380.88;5445700;26;19999;-57
2024/04/17 01:31:01;;;;;;;3.70;1.90;;;;;;;6.69;77.50;101381.72;5445681;26;20081;-55
2024/04/17 01:33:28;;;;;;;13.10;2.40;;;;;;;6.69;77.59;101373.47;5447712;26;20050;-57
2024/04/17 01:35:56;;;;;;;9.73;2.30;;;;;;;6.64;77.72;101373.56;5446186;26;20439;-54
2024/04/17 01:38:23;;;;;;;4.40;1.83;;;;;;;6.58;77.72;101374.75;5445707;26;20021;-57
2024/04/17 01:40:51;;;;;;;10.23;2.13;;;;;;;6.57;77.90;101373.13;5446451;26;20031;-56
2024/04/17 01:43:18;;;;;;;4.43;1.92;;;;;;;6.53;77.68;101372.09;5444469;26;20078;-56
2024/04/17 01:45:46;;;;;;;4.85;1.60;;;;;;;6.50;78.08;101366.38;5432276;26;20052;-56
2024/04/17 01:48:14;;;;;;;9.73;1.98;;;;;;;6.44;78.05;101373.91;5445400;26;20029;-52
2024/04/17 01:50:42;;;;;;;9.07;2.63;;;;;;;6.41;78.14;101363.50;5449253;26;20006;-57
2024/04/17 01:53:09;;;;;;;11.57;1.98;;;;;;;6.39;78.24;101368.50;5452407;26;20363;-55
2024/04/17 01:55:36;;;;;;;4.45;1.73;;;;;;;6.38;78.10;101360.56;5445075;26;20007;-53
2024/04/17 01:58:04;;;;;;;11.40;2.13;;;;;;;6.39;78.22;101359.44;5446630;26;20325;-55
2024/04/17 02:00:33;;;;;;;9.73;2.35;;;;;;;6.37;78.45;101361.66;5444099;26;20003;-57
2024/04/17 02:03:01;;;;;;;6.60;1.90;;;;;;;6.33;78.53;101355.16;5414858;26;20056;-56
2024/04/17 02:05:29;;;;;;;7.30;1.70;;;;;;;6.30;78.52;101351.03;5413735;26;20002;-56
2024/04/17 02:07:56;;;;;;;8.20;3.45;;;;;;;6.31;78.53;101358.19;5444779;26;20003;-56
2024/04/17 02:10:24;;;;;;;10.05;2.25;;;;;;;6.30;78.56;101353.00;5451038;26;20078;-56
2024/04/17 02:12:51;;;;;;;8.20;3.53;;;;;;;6.26;78.85;101355.53;5382401;26;20088;-56
2024/04/17 02:15:18;;;;;;;12.20;2.30;;;;;;;6.22;78.82;101349.03;5444889;26;20069;-55
2024/04/17 02:17:46;;;;;;;10.98;2.10;;;;;;;6.19;79.16;101343.28;5446125;26;20079;-56
2024/04/17 02:20:13;;;;;;;11.82;2.38;;;;;;;6.14;79.22;101344.22;5446412;26;20015;-56
2024/04/17 02:22:41;;;;;;;10.63;2.95;;;;;;;6.08;79.10;101342.66;5445734;26;20031;-55
2024/04/17 02:25:08;;;;;;;17.33;2.85;;;;;;;6.07;79.48;101346.50;5445490;26;20021;-57
2024/04/17 02:27:36;;;;;;;12.70;2.47;;;;;;;6.08;79.78;101348.97;5445163;26;20083;-56
2024/04/17 02:30:03;;;;;;;14.70;3.70;;;;;;;6.09;79.72;101336.03;5437276;26;20011;-54
2024/04/17 02:32:31;;;;;;;15.30;2.42;;;;;;;6.09;79.60;101333.28;5447538;26;20038;-56
2024/04/17 02:34:58;;;;;;;9.45;2.55;;;;;;;6.05;79.84;101337.75;5445325;26;20468;-52
2024/04/17 02:37:25;;;;;;;9.82;1.60;;;;;;;6.05;80.03;101348.75;5414293;26;20006;-56
2024/04/17 02:39:53;;;;;;;8.23;2.53;;;;;;;6.01;79.98;101362.25;5414032;26;20002;-58
2024/04/17 02:42:20;;;;;;;8.82;2.55;;;;;;;6.02;80.13;101343.84;5413105;26;20095;-56
2024/04/17 02:44:48;;;;;;;11.02;2.63;;;;;;;5.97;80.13;101341.19;5445244;26;20369;-58
2024/04/17 02:47:15;;;;;;;6.85;1.83;;;;;;;5.94;80.31;101347.28;5445374;26;20477;-56
2024/04/17 02:49:44;;;;;;;8.02;2.50;;;;;;;5.92;80.24;101349.50;5445384;26;20003;-54
2024/04/17 02:52:11;;;;;;;5.68;2.47;;;;;;;5.92;80.24;101366.00;5445054;26;20017;-50
2024/04/17 02:54:39;;;;;;;10.30;1.92;;;;;;;5.88;80.52;101359.47;5412745;26;20021;-55
2024/04/17 02:57:06;;;;;;;7.88;2.55;;;;;;;5.88;80.64;101365.78;5445576;26;20017;-56
2024/04/17 02:59:34;;;;;;;13.02;2.60;;;;;;;5.88;80.74;101364.94;5414458;26;20961;-55
2024/04/17 03:02:01;;;;;;;6.38;1.90;;;;;;;5.87;80.73;101369.66;5560511;21;20541;-55
2024/04/17 03:04:29;;;;;;;9.93;2.67;;;;;;;5.88;80.72;101364.94;5481681;26;20495;-55
2024/04/17 03:06:57;;;;;;;8.43;2.85;;;;;;;5.90;80.69;101362.75;5464543;26;20076;-53
2024/04/17 03:09:24;;;;;;;8.27;3.28;;;;;;;5.87;80.79;101363.34;5456323;26;20022;-55
2024/04/17 03:11:51;;;;;;;8.85;2.50;;;;;;;5.85;80.71;101368.31;5451390;26;20003;-54
2024/04/17 03:14:19;;;;;;;10.38;2.33;;;;;;;5.85;80.89;101365.56;5465644;26;20471;-56
2024/04/17 03:16:49;;;;;;;8.85;1.40;;;;;;;5.83;80.92;101362.25;5478346;26;20012;-55
2024/04/17 03:19:17;;;;;;;9.00;1.52;;;;;;;5.84;81.00;101369.41;5463703;26;20018;-56
2024/04/17 03:21:45;;;;;;;12.30;1.80;;;;;;;5.83;80.87;101360.31;5464923;26;20013;-52
2024/04/17 03:24:13;;;;;;;7.20;1.90;;;;;;;5.84;81.00;101358.41;5480307;26;20396;-56
2024/04/17 03:26:40;;;;;;;8.48;2.05;;;;;;;5.81;81.01;101364.50;5478521;26;20551;-55
2024/04/17 03:29:07;;;;;;;7.28;1.63;;;;;;;5.78;81.12;101359.59;5470542;26;20400;-53
2024/04/17 03:31:35;;;;;;;9.07;1.50;;;;;;;5.78;81.36;101365.09;5500630;26;20169;-56
2024/04/17 03:34:02;;;;;;;3.75;1.60;;;;;;;5.77;81.23;101360.72;5489524;25;20030;-55
2024/04/17 03:36:31;;;;;;;10.10;1.73;;;;;;;5.81;81.12;101361.75;5481225;26;20048;-54
2024/04/17 03:38:58;;;;;;;7.45;1.63;;;;;;;5.80;81.10;101365.63;5472433;26;20007;-51
2024/04/17 03:41:25;;;;;;;5.38;1.50;;;;;;;5.81;81.18;101370.00;5474478;26;20010;-56
2024/04/17 03:43:53;;;;;;;3.15;1.52;;;;;;;5.80;81.24;101363.66;5444864;26;20002;-54
2024/04/17 03:46:20;;;;;;;10.52;1.60;;;;;;;5.76;81.20;101361.81;5454182;26;20003;-54
2024/04/17 03:48:48;;;;;;;7.68;1.65;;;;;;;5.75;81.32;101354.69;5471367;26;20002;-53
2024/04/17 03:51:15;;;;;;;8.23;1.30;;;;;;;5.70;81.12;101365.75;5452388;26;20025;-56
2024/04/17 03:53:43;;;;;;;6.00;1.38;;;;;;;5.70;81.22;101363.84;5459278;26;20026;-53
2024/04/17 03:56:10;;;;;;;7.03;1.45;;;;;;;5.70;81.10;101365.75;5447611;26;20003;-54
2024/04/17 03:58:38;;;;;;;4.65;1.35;;;;;;;5.68;81.42;101365.25;5473453;26;20498;-56
2024/04/17 04:01:05;;;;;;;7.72;1.60;;;;;;;5.70;81.42;101363.00;5469132;26;20021;-55
2024/04/17 04:03:33;;;;;;;9.82;1.35;;;;;;;5.67;81.59;101360.84;5446136;26;20018;-52
2024/04/17 04:06:00;;;;;;;6.40;1.27;;;;;;;5.66;81.54;101367.47;5445766;26;20017;-54
2024/04/17 04:08:28;;;;;;;4.82;1.92;;;;;;;5.68;81.65;101362.50;5457894;26;20467;-55
2024/04/17 04:10:55;;;;;;;8.18;1.80;;;;;;;5.67;81.57;101375.41;5447658;26;20046;-57
2024/04/17 04:13:23;;;;;;;8.25;1.60;;;;;;;5.68;81.68;101373.47;5476497;26;20002;-52
2024/04/17 04:15:54;;;;;;;7.43;1.40;;;;;;;5.70;81.63;101371.25;5476529;26;20428;-57
2024/04/17 04:18:21;;;;;;;9.57;2.00;;;;;;;5.68;81.62;101366.06;5465376;26;20002;-56
2024/04/17 04:20:49;;;;;;;8.85;1.50;;;;;;;5.70;81.63;101360.25;5480934;26;20018;-51
2024/04/17 04:23:16;;;;;;;4.40;1.27;;;;;;;5.68;81.82;101365.25;5469089;26;20022;-56
2024/04/17 04:25:44;;;;;;;4.80;1.27;;;;;;;5.61;82.11;101356.56;5471996;26;20039;-55
2024/04/17 04:28:11;;;;;;;12.90;3.17;;;;;;;5.62;82.12;101348.03;5449986;26;20015;-57
2024/04/17 04:30:41;;;;;;;11.93;2.78;;;;;;;5.58;82.24;101343.41;5476067;26;20014;-53
2024/04/17 04:33:08;;;;;;;13.18;1.85;;;;;;;5.54;82.15;101355.00;5499781;26;20767;-53
2024/04/17 04:35:36;;;;;;;7.78;1.80;;;;;;;5.56;82.06;101348.41;5481152;26;20019;-57
2024/04/17 04:38:04;;;;;;;13.70;2.03;;;;;;;5.54;82.35;101343.19;5447890;26;20366;-53
2024/04/17 04:40:31;;;;;;;8.43;2.15;;;;;;;5.50;82.43;101334.75;5465437;26;20074;-53
2024/04/17 04:42:59;;;;;;;8.60;1.80;;;;;;;5.51;82.43;101344.59;5475980;26;20344;-55
2024/04/17 04:45:26;;;;;;;13.85;2.60;;;;;;;5.52;82.47;101338.00;5454511;26;20017;-55
2024/04/17 04:47:54;;;;;;;6.15;1.67;;;;;;;5.52;82.57;101340.75;5483401;26;20010;-56
2024/04/17 04:50:21;;;;;;;4.22;1.42;;;;;;;5.50;82.63;101337.50;5473793;26;20017;-56
2024/04/17 04:52:49;;;;;;;5.95;1.38;;;;;;;5.48;82.73;101325.97;5462429;26;20046;-54
2024/04/17 04:55:16;;;;;;;13.80;2.22;;;;;;;5.49;82.80;101326.78;5449341;26;20076;-53
2024/04/17 04:57:46;;;;;;;6.88;2.03;;;;;;;5.49;82.85;101327.63;5483232;26;20050;-56
2024/04/17 05:00:14;;;;;;;8.07;1.67;;;;;;;5.52;82.81;101324.28;5450652;26;20003;-58
2024/04/17 05:02:41;;;;;;;7.07;1.80;;;;;;;5.57;82.97;101330.78;5447802;26;20002;-54
2024/04/17 05:05:09;;;;;;;6.78;1.70;;;;;;;5.59;83.01;101323.88;5484016;26;20090;-55
2024/04/17 05:07:37;;;;;;;8.00;2.47;;;;;;;5.59;83.02;101334.09;5450815;26;20030;-56
2024/04/17 05:10:05;;;;;;;7.20;1.85;;;;;;;5.58;83.22;101335.19;5426398;26;20014;-57
2024/04/17 05:12:32;;;;;;;12.73;1.70;;;;;;;5.57;83.12;101331.63;5451083;26;19999;-55
2024/04/17 05:15:00;;;;;;;8.48;2.33;;;;;;;5.56;83.06;101331.94;5457805;26;20015;-56
2024/04/17 05:17:28;;;;;;;7.93;2.10;;;;;;;5.59;83.35;101342.31;5448314;26;20007;-56
2024/04/17 05:19:55;;;;;;;11.65;1.75;;;;;;;5.60;83.16;101342.00;5449303;26;20014;-54
2024/04/17 05:22:23;;;;;;;7.70;1.70;;;;;;;5.60;83.17;101335.69;5448601;26;20006;-56
2024/04/17 05:24:50;;;;;;;5.72;1.40;;;;;;;5.63;83.13;101340.59;5481798;26;20006;-51
2024/04/17 05:27:18;;;;;;;7.28;1.67;;;;;;;5.61;83.37;101334.59;5466333;26;20574;-56
2024/04/17 05:29:45;;;;;;;7.65;2.30;;;;;;;5.58;83.29;101336.00;5467705;26;20018;-56
2024/04/17 05:32:13;;;;;;;8.48;2.55;;;;;;;5.60;83.35;101324.72;5455006;26;20002;-52
2024/04/17 05:34:41;;;;;;;8.25;3.13;;;;;;;5.62;83.40;101336.22;5483213;25;20559;-53
2024/04/17 05:37:08;;;;;;;6.30;2.45;;;;;;;5.63;83.48;101335.09;5446929;26;20006;-55
2024/04/17 05:39:36;;;;;;;5.90;1.85;;;;;;;5.66;83.37;101329.03;5482844;26;20483;-54
2024/04/17 05:42:03;;;;;;;8.75;2.08;;;;;;;5.68;83.46;101335.03;5483208;26;20014;-60
2024/04/17 05:44:31;;;;;;;11.30;2.00;;;;;;;5.70;83.42;101335.53;5461961;26;20583;-57
2024/04/17 05:46:58;;;;;;;8.02;2.03;;;;;;;5.71;83.28;101349.00;5472368;26;20351;-53
2024/04/17 05:49:26;;;;;;;7.85;1.33;;;;;;;5.74;83.58;101331.09;5470288;26;20034;-53
2024/04/17 05:51:54;;;;;;;7.30;1.80;;;;;;;5.75;83.43;101343.69;5443384;26;20042;-57
2024/04/17 05:54:21;;;;;;;7.40;2.85;;;;;;;5.76;83.62;101345.34;5459062;26;20079;-56
2024/04/17 05:56:49;;;;;;;20.45;3.08;;;;;;;5.79;83.41;101353.81;5478157;26;20601;-56
2024/04/17 05:59:17;;;;;;;12.77;2.28;;;;;;;5.80;83.57;101351.88;5473849;26;19998;-54
2024/04/17 06:01:44;;;;;;;8.02;1.55;;;;;;;5.83;83.52;101345.78;5480282;26;20017;-56
2024/04/17 06:04:12;;;;;;;7.82;1.92;;;;;;;5.84;83.58;101347.41;5427755;26;20018;-54
2024/04/17 06:06:39;;;;;;;7.40;1.40;;;;;;;5.87;83.61;101352.34;5447739;26;20007;-56
2024/04/17 06:09:07;;;;;;;9.32;1.88;;;;;;;5.94;83.54;101341.78;5456612;26;20006;-54
2024/04/17 06:11:35;;;;;;;4.03;1.30;;;;;;;5.99;83.45;101339.75;5463151;25;20038;-54
2024/04/17 06:14:03;;;;;;;12.32;2.10;;;;;;;6.02;83.47;101343.84;5472927;26;20010;-57
2024/04/17 06:16:34;;;;;;;6.80;1.75;;;;;;;6.04;83.54;101336.09;5465011;26;20020;-55
2024/04/17 06:19:02;;;;;;;4.80;1.92;;;;;;;6.10;83.63;101334.91;5475321;26;20017;-55
2024/04/17 06:21:29;;;;;;;12.30;3.60;;;;;;;6.13;83.65;101334.31;5455422;26;20002;-56
2024/04/17 06:23:57;;;;;;;9.18;2.28;;;;;;;6.13;83.65;101335.13;5448711;26;20041;-55
2024/04/17 06:26:24;;;;;;;8.35;2.30;;;;;;;6.15;83.75;101351.31;5458489;26;20003;-56
2024/04/17 06:28:53;;;;;;;9.95;2.45;;;;;;;6.16;83.92;101343.91;5447775;26;20003;-55
2024/04/17 06:31:21;;;;;;;9.90;2.30;;;;;;;6.13;83.78;101348.06;5472396;26;20329;-56
2024/04/17 06:33:48;;;;;;;7.03;2.15;;;;;;;6.16;83.83;101354.88;5504428;26;20016;-58
2024/04/17 06:36:16;;;;;;;5.32;2.28;;;;;;;6.18;83.95;101358.16;5469532;26;20018;-56
2024/04/17 06:38:44;;;;;;;5.20;2.22;;;;;;;6.21;84.18;101354.81;5458592;26;20014;-55
2024/04/17 06:41:12;;;;;;;10.10;2.00;;;;;;;6.24;84.10;101357.78;5465141;26;20010;-56
2024/04/17 06:43:40;;;;;;;10.38;2.38;;;;;;;6.25;83.78;101350.34;5452160;26;20010;-57
2024/04/17 06:46:11;;;;;;;7.57;1.45;;;;;;;6.24;83.61;101357.78;5453722;26;20463;-55
2024/04/17 06:48:39;;;;;;;6.78;1.83;;;;;;;6.27;83.95;101346.19;5482821;26;20014;-55
2024/04/17 06:51:06;;;;;;;7.75;2.20;;;;;;;6.31;84.10;101360.94;5481821;26;19998;-55
2024/04/17 06:53:34;;;;;;;10.02;1.67;;;;;;;6.37;83.90;101357.00;5481968;26;20010;-59
2024/04/17 06:56:04;;;;;;;5.55;2.03;;;;;;;6.46;84.27;101357.13;5487804;26;20339;-56
2024/04/17 06:58:31;;;;;;;7.10;1.58;;;;;;;6.55;84.16;101352.53;5510199;25;20002;-54
2024/04/17 07:00:59;;;;;;;7.05;2.20;;;;;;;6.60;84.12;101344.19;5479320;26;20460;-56
2024/04/17 07:03:27;;;;;;;6.15;1.73;;;;;;;6.66;84.08;101348.47;5502709;26;20473;-56
2024/04/17 07:06:05;;;;;;;22.40;3.22;;;;;;;6.74;83.96;101351.34;5517968;26;20013;-58
2024/04/17 07:08:32;;;;;;;11.30;2.00;;;;;;;6.81;84.15;101344.59;5480146;26;20002;-55
2024/04/17 07:11:01;;;;;;;9.02;2.25;;;;;;;6.80;83.88;101356.75;5480166;26;20006;-57
2024/04/17 07:13:29;;;;;;;6.35;2.00;;;;;;;6.81;84.04;101350.91;5462324;26;20339;-58
2024/04/17 07:15:57;;;;;;;11.10;2.58;;;;;;;6.84;84.02;101353.06;5454581;26;20022;-57
2024/04/17 07:18:25;;;;;;;13.38;2.40;;;;;;;6.89;83.79;101354.91;5473218;26;20018;-56
2024/04/17 07:20:52;;;;;;;16.40;3.33;;;;;;;6.93;84.17;101358.69;5462855;26;20349;-56
2024/04/17 07:23:20;;;;;;;9.55;1.80;;;;;;;6.92;84.04;101359.78;5469925;26;20014;-55
2024/04/17 07:25:47;;;;;;;8.20;2.15;;;;;;;6.92;84.14;101357.88;5477354;26;20006;-56
2024/04/17 07:28:15;;;;;;;10.80;2.08;;;;;;;6.98;84.01;101356.66;5478822;26;20862;-56
2024/04/17 07:30:42;;;;;;;8.45;1.80;;;;;;;7.04;83.82;101360.13;5464405;26;20030;-56
2024/04/17 07:33:10;;;;;;;10.25;3.28;;;;;;;7.08;83.90;101347.34;5471927;26;20050;-57
2024/04/17 07:35:40;;;;;;;12.27;2.67;;;;;;;7.16;83.71;101358.47;5455803;26;20019;-55
2024/04/17 07:38:09;;;;;;;11.27;2.75;;;;;;;7.21;83.57;101357.53;5469494;26;20017;-54
2024/04/17 07:40:37;;;;;;;11.82;2.63;;;;;;;7.27;83.59;101353.56;5455492;26;20010;-58
2024/04/17 07:43:05;;;;;;;14.27;3.40;;;;;;;7.29;83.81;101351.31;5453214;26;20002;-58
2024/04/17 07:45:35;;;;;;;14.35;1.95;;;;;;;7.31;83.61;101357.31;5467126;26;20035;-58
2024/04/17 07:48:02;;;;;;;6.53;2.05;;;;;;;7.38;83.29;101337.63;5470962;26;20030;-57
2024/04/17 07:50:35;;;;;;;7.13;2.10;;;;;;;7.46;83.77;101345.97;5461682;26;20011;-56
2024/04/17 07:53:03;;;;;;;12.68;1.60;;;;;;;7.50;83.38;101346.16;5473726;26;20017;-55
2024/04/17 07:55:32;;;;;;;7.50;1.60;;;;;;;7.51;83.41;101345.88;5476270;26;20002;-56
2024/04/17 07:57:59;;;;;;;10.88;1.70;;;;;;;7.53;83.07;101340.84;5465052;26;20074;-57
2024/04/17 08:00:26;;;;;;;6.82;1.77;;;;;;;7.60;83.10;101324.69;5472856;26;20009;-56
2024/04/17 08:02:54;;;;;;;12.85;2.17;;;;;;;7.71;83.41;101330.78;5473666;26;20046;-59
2024/04/17 08:05:21;;;;;;;7.45;2.17;;;;;;;7.80;83.51;101332.50;5482023;26;20449;-56
2024/04/17 08:07:49;;;;;;;6.97;2.08;;;;;;;7.87;82.90;101341.13;5480682;26;20495;-57
2024/04/17 08:10:16;;;;;;;9.50;2.85;;;;;;;7.92;82.94;101338.25;5481670;26;20021;-60
2024/04/17 08:12:44;;;;;;;12.60;3.08;;;;;;;8.02;83.17;101339.97;5462654;26;20006;-58
2024/04/17 08:15:12;;;;;;;6.53;2.10;;;;;;;8.19;83.12;101330.97;5481564;26;20466;-56
2024/04/17 08:17:43;;;;;;;4.95;1.38;;;;;;;8.26;82.59;101334.91;5481310;26;20444;-57
2024/04/17 08:20:11;;;;;;;6.45;2.00;;;;;;;8.27;82.71;101331.06;5458850;26;20413;-57
2024/04/17 08:22:38;;;;;;;12.18;2.30;;;;;;;8.27;82.52;101336.59;5472540;26;20002;-59
2024/04/17 08:25:06;;;;;;;8.43;2.17;;;;;;;8.31;82.87;101328.50;5483195;26;19998;-57
2024/04/17 08:27:33;;;;;;;8.25;1.75;;;;;;;8.37;83.10;101333.56;5482780;26;20006;-59
2024/04/17 08:30:01;;;;;;;7.57;1.60;;;;;;;8.46;83.17;101314.28;5476548;26;20003;-57
2024/04/17 08:32:28;;;;;;;8.05;2.28;;;;;;;8.58;82.50;101317.25;5462591;26;20047;-56
2024/04/17 08:34:56;;;;;;;6.72;2.40;;;;;;;8.67;82.39;101309.84;5470935;25;20772;-58
2024/04/17 08:37:24;;;;;;;8.52;1.48;;;;;;;8.83;82.29;101315.75;5454175;26;20448;-57
2024/04/17 08:39:51;;;;;;;6.78;1.73;;;;;;;9.18;83.05;101304.50;5456388;26;20014;-57
2024/04/17 08:42:25;;;;;;;6.50;1.80;;;;;;;9.92;82.43;101306.28;5478174;26;20017;-59
2024/04/17 08:44:53;;;;;;;7.03;2.17;;;;;;;10.13;81.41;101313.63;5470842;26;19998;-54
2024/04/17 08:47:23;;;;;;;4.68;1.20;;;;;;;9.95;81.13;101309.22;5472129;26;20455;-57
2024/04/17 08:49:53;;;;;;;6.95;2.25;;;;;;;9.70;80.77;101319.16;5479185;26;20006;-57
2024/04/17 08:52:21;;;;;;;4.65;1.33;;;;;;;9.49;80.87;101320.13;5467490;26;20011;-59
2024/04/17 08:54:49;;;;;;;11.13;2.05;;;;;;;9.36;80.99;101315.56;5458208;26;20455;-58
2024/04/17 08:57:18;;;;;;;10.18;3.08;;;;;;;9.25;81.01;101315.03;5474227;26;20038;-58
2024/04/17 08:59:46;;;;;;;6.03;1.80;;;;;;;9.21;80.80;101322.38;5477821;26;20002;-58
2024/04/17 09:02:14;;;;;;;15.02;1.95;;;;;;;9.25;80.90;101314.22;5478496;26;20479;-57
2024/04/17 09:04:44;;;;;;;9.18;1.60;;;;;;;9.41;80.52;101320.91;5476743;26;20020;-57
2024/04/17 09:07:12;;;;;;;11.98;2.08;;;;;;;9.65;80.71;101312.97;5474163;26;20002;-56
2024/04/17 09:09:41;;;;;;;10.00;1.80;;;;;;;9.81;80.12;101316.88;5480350;26;20034;-59
2024/04/17 09:12:12;;;;;;;6.20;1.90;;;;;;;9.87;79.67;101320.28;5467768;26;20002;-58
2024/04/17 09:14:40;;;;;;;10.25;1.83;;;;;;;9.85;79.59;101322.56;5480653;26;20445;-56
2024/04/17 09:17:21;;;;;;;7.95;2.13;;;;;;;9.77;79.92;101315.88;5481574;26;20070;-59
2024/04/17 09:19:54;;;;;;;4.65;1.27;;;;;;;9.67;79.73;101305.16;5478017;26;20490;-57
2024/04/17 09:22:21;;;;;;;12.45;3.30;;;;;;;9.65;79.63;101307.44;5472139;26;20440;-58
2024/04/17 09:24:48;;;;;;;6.75;1.73;;;;;;;9.64;80.01;101298.31;5465244;26;20006;-58
2024/04/17 09:27:16;;;;;;;4.32;1.52;;;;;;;9.72;79.89;101307.75;5480495;26;19998;-58
2024/04/17 09:29:43;;;;;;;7.00;2.60;;;;;;;9.78;79.79;101307.28;5478277;26;20002;-58
2024/04/17 09:32:15;;;;;;;3.67;1.95;;;;;;;9.76;78.80;101301.28;5477330;26;20006;-59
2024/04/17 09:34:43;;;;;;;9.38;2.17;;;;;;;9.71;79.03;101301.44;5477999;26;20006;-58
2024/04/17 09:37:13;;;;;;;5.35;2.00;;;;;;;9.70;78.62;101301.75;5471686;26;20475;-59
2024/04/17 09:39:41;;;;;;;4.90;2.28;;;;;;;9.61;78.51;101290.69;5479657;26;20074;-58
2024/04/17 09:42:09;;;;;;;10.38;2.33;;;;;;;9.44;78.44;101296.22;5454296;26;20808;-58
2024/04/17 09:44:39;;;;;;;8.93;1.80;;;;;;;9.38;78.10;101302.22;5457372;26;20006;-59
2024/04/17 09:47:11;;;;;;;9.23;2.20;;;;;;;9.40;78.57;101299.97;5460578;26;19994;-59
2024/04/17 09:49:45;;;;;;;5.75;1.63;;;;;;;9.47;78.56;101294.75;5473125;26;20074;-60
2024/04/17 09:52:15;;;;;;;10.77;3.13;;;;;;;9.50;78.14;101296.88;5479003;26;20013;-56
2024/04/17 09:54:45;;;;;;;13.40;2.10;;;;;;;9.49;78.46;101289.72;5469270;26;20447;-59
2024/04/17 09:57:12;;;;;;;7.97;2.42;;;;;;;9.54;78.41;101290.38;5477555;26;19998;-58
2024/04/17 09:59:42;;;;;;;10.32;2.47;;;;;;;9.56;78.14;101284.50;5480729;26;20003;-59
2024/04/17 10:02:17;;;;;;;4.55;1.88;;;;;;;9.58;78.25;101282.25;5484203;26;20013;-59
2024/04/17 10:04:46;;;;;;;3.65;1.90;;;;;;;9.56;78.03;101284.50;5467823;26;20002;-60
2024/04/17 10:07:14;;;;;;;8.15;2.20;;;;;;;9.57;77.69;101289.72;5446138;26;20010;-58
2024/04/17 10:09:42;;;;;;;9.25;2.70;;;;;;;9.55;77.85;101297.53;5462850;26;20468;-59
2024/04/17 10:12:13;;;;;;;5.78;2.15;;;;;;;9.49;77.67;101286.94;5471346;26;20013;-58
2024/04/17 10:14:41;;;;;;;9.35;2.50;;;;;;;9.42;77.72;101276.38;5475115;26;20002;-59
2024/04/17 10:17:09;;;;;;;9.57;2.13;;;;;;;9.41;77.98;101279.47;5465827;26;20456;-58
2024/04/17 10:19:57;;;;;;;9.00;2.03;;;;;;;9.42;78.19;101284.69;5477678;26;20002;-58
2024/04/17 10:22:24;;;;;;;9.88;2.38;;;;;;;9.47;78.43;101278.16;5474712;26;20335;-58
2024/04/17 10:24:52;;;;;;;11.02;3.20;;;;;;;9.47;78.09;101280.94;5474485;26;20477;-58
2024/04/17 10:27:21;;;;;;;6.10;2.60;;;;;;;9.44;78.57;101281.59;5461784;26;20804;-56
2024/04/17 10:29:49;;;;;;;12.35;2.88;;;;;;;9.48;78.65;101279.78;5478131;26;20813;-59
2024/04/17 10:32:16;;;;;;;11.05;2.88;;;;;;;9.52;78.99;101283.53;5468813;26;20012;-57
2024/04/17 10:34:52;;;;;;;9.55;3.30;;;;;;;9.54;78.62;101284.03;5483900;26;20012;-55
2024/04/17 10:37:21;;;;;;;10.60;3.45;;;;;;;9.56;78.97;101292.78;5453996;26;20011;-50
2024/04/17 10:39:49;;;;;;;7.57;2.97;;;;;;;9.57;79.42;101288.91;5465805;26;20367;-54
2024/04/17 10:42:17;;;;;;;8.77;3.20;;;;;;;9.57;79.16;101298.00;5475457;26;20014;-55
2024/04/17 10:44:55;;;;;;;11.50;3.83;;;;;;;9.57;79.16;101286.13;5471815;26;20369;-56
2024/04/17 10:47:26;;;;;;;8.68;3.38;;;;;;;9.54;79.75;101295.06;5459351;26;20557;-56
2024/04/17 10:49:59;;;;;;;9.32;3.47;;;;;;;9.51;79.88;101293.78;5478368;26;20006;-54
2024/04/17 10:52:30;;;;;;;10.45;3.63;;;;;;;9.48;79.85;101293.59;5471684;26;20775;-53
2024/04/17 10:55:00;;;;;;;10.68;3.13;;;;;;;9.46;80.22;101288.41;5471535;26;20018;-53
2024/04/17 10:57:31;;;;;;;9.30;3.25;;;;;;;9.42;80.41;101286.63;5467960;26;20035;-56
2024/04/17 10:59:59;;;;;;;15.38;3.35;;;;;;;9.38;80.50;101285.63;5477614;26;20014;-53
2024/04/17 11:02:30;;;;;;;9.77;3.10;;;;;;;9.35;80.88;101287.09;5479366;26;20448;-53
2024/04/17 11:04:57;;;;;;;9.45;3.90;;;;;;;9.31;81.08;101288.91;5479757;26;20016;-57
2024/04/17 11:07:25;;;;;;;10.38;3.53;;;;;;;9.28;81.51;101280.44;5469028;26;20404;-58
2024/04/17 11:09:53;;;;;;;8.82;3.15;;;;;;;9.24;81.75;101273.94;5472817;26;20052;-56
2024/04/17 11:12:20;;;;;;;8.73;2.90;;;;;;;9.23;81.45;101277.81;5480853;26;20010;-57
2024/04/17 11:14:59;;;;;;;12.25;3.15;;;;;;;9.17;81.40;101272.47;5470674;26;20002;-55
2024/04/17 11:17:27;;;;;;;14.65;4.30;;;;;;;9.24;81.48;101271.97;5462240;26;20333;-53
2024/04/17 11:19:55;;;;;;;14.43;3.65;;;;;;;9.39;81.63;101265.16;5478324;26;20522;-56
2024/04/17 11:22:23;;;;;;;8.07;3.15;;;;;;;9.57;81.42;101267.59;5481336;26;20003;-55
2024/04/17 11:24:57;;;;;;;12.25;3.78;;;;;;;9.62;81.47;101252.78;5462370;26;20014;-57
2024/04/17 11:27:25;;;;;;;10.88;3.25;;;;;;;9.64;81.53;101267.09;5481616;26;20002;-53
2024/04/17 11:29:52;;;;;;;13.52;3.17;;;;;;;9.71;81.51;101267.44;5472301;26;20007;-56
2024/04/17 11:32:20;;;;;;;9.10;2.78;;;;;;;9.75;82.13;101247.09;5481609;26;20012;-55
2024/04/17 11:34:47;;;;;;;9.48;2.70;;;;;;;9.84;82.15;101249.84;5479131;26;20460;-54
2024/04/17 11:37:15;;;;;;;9.52;4.05;;;;;;;9.92;82.19;101246.25;5480117;26;20021;-53